tititudorancea.com
Station Historical Data
Daily Summary for March 14, 2018 Units:  Metric    English   Both
« Previous Day
Next Day »
Daily Weekly Monthly Yearly Custom
  High: Low: Average:
Temperature: -17.8 °C 11.2 °C 15.8 °C
Dew Point: -17.8 °C 6.2 °C 8.6 °C
Humidity: Humidity % 33 % 65 %
Wind Speed: 0 km/h 2.1 km/h 10 km/h
Wind Gust: 0 km/h - -
Wind:- - SSW
Pressure: 0 hPa 1014.1 hPa -
Precipitation: 0 mm    
Historical Graphs
 
 
Ararat weather Find more about Weather in Ararat, AU


 



 


Tabular Data for March 14, 2018
Time Temperature Dew Point Pressure Wind Wind Speed Wind Gust Humidity Rainfall Rate (Hourly)
-17.8 °C -17.8 °C 0 hPa Calm     Humidity % 0 mm
00:03 11.8 °C 9.1 °C 1020.2 hPa South 10.3 km/h 16.7 km/h 83 % 0 mm
00:08 11.8 °C 9 °C 1020.2 hPa South 6.6 km/h 11.1 km/h 83 % 0 mm
00:13 11.7 °C 8.9 °C 1020.2 hPa North 7.7 km/h 14.8 km/h 83 % 0 mm
00:18 11.7 °C 9.1 °C 1020.2 hPa North 8.5 km/h 14.5 km/h 84 % 0 mm
00:23 11.6 °C 9 °C 1020.2 hPa South 4.7 km/h 8 km/h 84 % 0 mm
00:28 11.6 °C 9 °C 1019.9 hPa North 7.6 km/h 14.8 km/h 84 % 0 mm
00:33 11.6 °C 9.1 °C 1019.9 hPa North 7.1 km/h 14.8 km/h 85 % 0 mm
00:38 11.5 °C 9.1 °C 1019.9 hPa South 8.2 km/h 13 km/h 85 % 0 mm
00:43 11.4 °C 9 °C 1019.9 hPa South 5.3 km/h 9.3 km/h 85 % 0 mm
00:48 11.4 °C 8.9 °C 1019.9 hPa North 7.1 km/h 11.1 km/h 85 % 0 mm
00:53 11.4 °C 9.1 °C 1019.9 hPa North 8 km/h 14.8 km/h 86 % 0 mm
00:58 11.3 °C 9.1 °C 1019.9 hPa South 8.2 km/h 11.3 km/h 86 % 0 mm
01:03 11.3 °C 9.1 °C 1019.9 hPa North 8.7 km/h 14.8 km/h 86 % 0 mm
01:08 11.3 °C 9 °C 1019.9 hPa North 9.5 km/h 9.7 km/h 86 % 0 mm
01:13 11.3 °C 9 °C 1019.5 hPa South 4.7 km/h 11.1 km/h 86 % 0 mm
01:18 11.2 °C 9.1 °C 1019.5 hPa South 9 km/h 11.3 km/h 87 % 0 mm
01:23 11.2 °C 9.1 °C 1019.5 hPa South 7.1 km/h 13 km/h 87 % 0 mm
01:28 11.2 °C 9.1 °C 1019.5 hPa North 8.5 km/h 13 km/h 87 % 0 mm
01:33 11.2 °C 9.1 °C 1019.5 hPa South 8.9 km/h 11.3 km/h 87 % 0 mm
01:38 11.2 °C 9.3 °C 1019.5 hPa North 9.2 km/h 18.5 km/h 88 % 0 mm
01:44 11.3 °C 9.4 °C 1019.5 hPa North 8.7 km/h 14.8 km/h 88 % 0 mm
01:49 11.3 °C 9.4 °C 1019.2 hPa South 6.8 km/h 11.1 km/h 88 % 0 mm
01:53 11.3 °C 9.4 °C 1019.2 hPa North 7.7 km/h 9.3 km/h 88 % 0 mm
01:58 11.4 °C 9.4 °C 1019.2 hPa South 8.4 km/h 13 km/h 88 % 0 mm
02:03 11.4 °C 9.4 °C 1019.2 hPa North 10 km/h 14.8 km/h 88 % 0 mm
02:09 11.4 °C 9.4 °C 1019.2 hPa North 9.5 km/h 13 km/h 88 % 0 mm
02:14 11.4 °C 9.5 °C 1019.2 hPa South 6.6 km/h 7.4 km/h 88 % 0 mm
02:19 11.5 °C 9.6 °C 1019.2 hPa South 3.5 km/h 13 km/h 88 % 0 mm
02:24 11.6 °C 9.7 °C 1018.8 hPa North 8.4 km/h 14.8 km/h 88 % 0 mm
02:29 11.6 °C 9.7 °C 1018.8 hPa South 5 km/h 9.3 km/h 88 % 0 mm
02:34 11.7 °C 9.7 °C 1018.8 hPa North 7.2 km/h 9.3 km/h 88 % 0 mm
02:39 11.6 °C 9.7 °C 1018.8 hPa North 11.3 km/h 14.8 km/h 88 % 0 mm
02:44 11.6 °C 9.7 °C 1018.8 hPa South 7.7 km/h 9.7 km/h 88 % 0 mm
02:49 11.6 °C 9.7 °C 1018.8 hPa South 9 km/h 13 km/h 88 % 0 mm
02:54 11.7 °C 9.6 °C 1018.8 hPa North 9.8 km/h 14.8 km/h 87 % 0 mm
02:59 11.7 °C 9.6 °C 1018.8 hPa North 8.4 km/h 16.7 km/h 87 % 0 mm
03:04 11.7 °C 9.6 °C 1018.8 hPa South 9.7 km/h 16.1 km/h 87 % 0 mm
03:09 11.7 °C 9.6 °C 1018.8 hPa South 10.3 km/h 12.9 km/h 87 % 0 mm
03:14 11.7 °C 9.6 °C 1018.8 hPa South 7.9 km/h 14.5 km/h 87 % 0 mm
03:19 11.7 °C 9.6 °C 1018.8 hPa North 9.8 km/h 16.7 km/h 87 % 0 mm
03:24 11.7 °C 9.6 °C 1018.8 hPa South 7.4 km/h 14.8 km/h 87 % 0 mm
03:29 11.7 °C 9.4 °C 1018.8 hPa South 9.2 km/h 16.7 km/h 86 % 0 mm
03:34 11.8 °C 9.6 °C 1018.8 hPa South 11.1 km/h 17.7 km/h 86 % 0 mm
03:39 11.9 °C 9.7 °C 1018.5 hPa South 7.6 km/h 12.9 km/h 86 % 0 mm
03:44 12 °C 9.7 °C 1018.5 hPa North 8.9 km/h 14.8 km/h 86 % 0 mm
03:49 12 °C 9.7 °C 1018.5 hPa South 9.2 km/h 16.7 km/h 86 % 0 mm
03:54 12.1 °C 9.8 °C 1018.5 hPa South 10.8 km/h 14.8 km/h 86 % 0 mm
03:59 12.1 °C 9.7 °C 1018.5 hPa North 6 km/h 9.3 km/h 85 % 0 mm
04:04 12.1 °C 9.7 °C 1018.5 hPa South 8.7 km/h 14.8 km/h 85 % 0 mm
04:09 12.2 °C 9.7 °C 1018.5 hPa South 9.7 km/h 18.5 km/h 85 % 0 mm
04:14 12.2 °C 9.8 °C 1018.5 hPa South 12.6 km/h 22.2 km/h 85 % 0 mm
04:19 12.3 °C 9.7 °C 1018.5 hPa South 9.3 km/h 17.7 km/h 84 % 0 mm
04:24 12.4 °C 9.8 °C 1018.5 hPa South 10.1 km/h 22.2 km/h 84 % 0 mm
04:29 12.4 °C 9.8 °C 1018.2 hPa South 8 km/h 14.8 km/h 84 % 0 mm
04:34 12.4 °C 9.8 °C 1018.2 hPa South 10.6 km/h 14.8 km/h 84 % 0 mm
04:39 12.5 °C 9.9 °C 1018.2 hPa South 12.1 km/h 18.5 km/h 84 % 0 mm
04:44 12.6 °C 9.8 °C 1018.5 hPa South 11.6 km/h 18.5 km/h 83 % 0 mm
04:49 12.7 °C 9.7 °C 1018.5 hPa South 9.3 km/h 13 km/h 82 % 0 mm
04:54 12.7 °C 9.7 °C 1018.5 hPa South 11.3 km/h 16.7 km/h 82 % 0 mm
04:59 12.7 °C 9.7 °C 1018.2 hPa South 9.5 km/h 13 km/h 82 % 0 mm
05:04 12.7 °C 9.6 °C 1018.5 hPa SSE 7.9 km/h 13 km/h 81 % 0 mm
05:09 12.7 °C 9.6 °C 1018.5 hPa South 7.9 km/h 19.3 km/h 81 % 0 mm
05:14 12.7 °C 9.6 °C 1018.5 hPa South 9.3 km/h 13 km/h 81 % 0 mm
05:19 12.7 °C 9.6 °C 1018.5 hPa North 7.6 km/h 11.1 km/h 81 % 0 mm
05:24 12.8 °C 9.4 °C 1018.5 hPa SSE 5.1 km/h 9.3 km/h 80 % 0 mm
05:29 12.8 °C 9.4 °C 1018.2 hPa SE 8.4 km/h 18.5 km/h 80 % 0 mm
05:34 12.7 °C 9.3 °C 1018.2 hPa SSE 15.3 km/h 18.5 km/h 80 % 0 mm
05:39 12.6 °C 9.1 °C 1018.2 hPa SSE 11.4 km/h 16.7 km/h 79 % 0 mm
05:44 12.5 °C 8.9 °C 1018.2 hPa South 12.7 km/h 18.5 km/h 79 % 0 mm
05:49 12.4 °C 8.9 °C 1018.2 hPa SSE 7.6 km/h 13 km/h 79 % 0 mm
05:54 12.4 °C 8.8 °C 1018.5 hPa South 11.7 km/h 18.5 km/h 79 % 0 mm
05:59 12.4 °C 9.1 °C 1018.5 hPa North 8.2 km/h 13 km/h 80 % 0 mm
06:04 12.4 °C 9.1 °C 1018.5 hPa SSE 10.9 km/h 16.7 km/h 80 % 0 mm
06:09 12.5 °C 9.2 °C 1018.5 hPa North 11.6 km/h 18.5 km/h 80 % 0 mm
06:14 12.5 °C 8.9 °C 1018.5 hPa North 11.7 km/h 18.5 km/h 79 % 0 mm
06:19 12.5 °C 8.9 °C 1018.5 hPa South 9 km/h 14.8 km/h 79 % 0 mm
06:24 12.5 °C 8.9 °C 1018.5 hPa North 7.4 km/h 14.8 km/h 79 % 0 mm
06:29 12.4 °C 8.8 °C 1018.5 hPa SSE 9.8 km/h 14.8 km/h 79 % 0 mm
06:34 12.3 °C 9 °C 1018.5 hPa South 7.2 km/h 11.1 km/h 80 % 0 mm
06:39 12.2 °C 8.9 °C 1018.5 hPa North 5.3 km/h 11.1 km/h 80 % 0 mm
06:44 12.1 °C 8.8 °C 1018.5 hPa SSE 8.4 km/h 13 km/h 80 % 0 mm
06:49 12 °C 8.8 °C 1018.5 hPa North 8.7 km/h 13 km/h 81 % 0 mm
06:54 11.9 °C 8.8 °C 1018.2 hPa SSE 7.2 km/h 11.1 km/h 81 % 0 mm
06:59 11.8 °C 8.7 °C 1018.5 hPa SSE 4.7 km/h 11.3 km/h 81 % 0 mm
07:04 11.8 °C 8.6 °C 1018.5 hPa North 5.3 km/h 7.4 km/h 81 % 0 mm
07:09 11.7 °C 8.7 °C 1018.5 hPa SSE 8.4 km/h 12.9 km/h 82 % 0 mm
07:14 11.7 °C 8.7 °C 1018.5 hPa North 11.1 km/h 16.7 km/h 82 % 0 mm
07:19 11.7 °C 8.7 °C 1018.5 hPa SSE 10.6 km/h 14.8 km/h 82 % 0 mm
07:24 11.7 °C 8.7 °C 1018.5 hPa South 6.6 km/h 14.8 km/h 82 % 0 mm
07:29 11.6 °C 8.7 °C 1018.5 hPa SSE 11.9 km/h 18.5 km/h 82 % 0 mm
07:34 11.6 °C 8.7 °C 1018.8 hPa North 6.4 km/h 11.1 km/h 82 % 0 mm
07:39 11.6 °C 8.7 °C 1018.8 hPa South 4 km/h 9.7 km/h 82 % 0 mm
07:44 11.6 °C 8.7 °C 1018.8 hPa South 6.8 km/h 9.3 km/h 82 % 0 mm
07:49 11.6 °C 8.8 °C 1018.8 hPa North 5.8 km/h 14.8 km/h 83 % 0 mm
07:54 11.7 °C 8.9 °C 1018.8 hPa SSE 4 km/h 9.7 km/h 83 % 0 mm
07:59 11.9 °C 9.1 °C 1019.2 hPa SSE 8.9 km/h 14.8 km/h 83 % 0 mm
08:04 12.1 °C 9.1 °C 1019.2 hPa South 9.5 km/h 18.5 km/h 82 % 0 mm
08:09 12.5 °C 9.3 °C 1019.2 hPa North 7.6 km/h 19.3 km/h 81 % 0 mm
08:14 12.7 °C 9.3 °C 1019.2 hPa South 8.9 km/h 14.5 km/h 80 % 0 mm
08:19 12.9 °C 9.3 °C 1019.5 hPa South 14 km/h 18.5 km/h 79 % 0 mm
08:24 13.1 °C 9.3 °C 1019.5 hPa SSE 16.4 km/h 24.1 km/h 78 % 0 mm
08:29 13.2 °C 9.3 °C 1019.5 hPa South 9.5 km/h 18.5 km/h 77 % 0 mm
08:34 13.3 °C 9.4 °C 1019.5 hPa South 10.9 km/h 20.4 km/h 77 % 0 mm
08:39 13.4 °C 9.5 °C 1019.9 hPa SSE 9.8 km/h 18.5 km/h 77 % 0 mm
08:44 13.5 °C 9.2 °C 1019.9 hPa SE 27.8 km/h 27.8 km/h 75 % 0 mm
08:49 13.5 °C 9.2 °C 1019.9 hPa SSW 11.6 km/h 19.3 km/h 75 % 0 mm
08:54 13.6 °C 9.2 °C 1019.9 hPa SSE 21.7 km/h 29.6 km/h 75 % 0 mm
08:59 13.7 °C 9.3 °C 1019.9 hPa SE 13.4 km/h 20.9 km/h 75 % 0 mm
09:04 13.7 °C 9.4 °C 1019.5 hPa SE 13.5 km/h 22.2 km/h 75 % 0 mm
09:09 13.8 °C 9.3 °C 1019.5 hPa South 14.6 km/h 24.1 km/h 74 % 0 mm
09:14 14 °C 9.4 °C 1019.5 hPa South 14.8 km/h 29.6 km/h 74 % 0 mm
09:19 14.2 °C 9.4 °C 1019.2 hPa SE 13.5 km/h 22.2 km/h 73 % 0 mm
09:24 14.3 °C 9.3 °C 1019.2 hPa SE 13.8 km/h 20.4 km/h 72 % 0 mm
09:29 14.5 °C 9.5 °C 1019.5 hPa SE 16.7 km/h 27.8 km/h 72 % 0 mm
09:34 14.7 °C 9.4 °C 1019.2 hPa South 11.4 km/h 18.5 km/h 71 % 0 mm
09:39 14.8 °C 9.6 °C 1019.5 hPa SSE 13 km/h 18.5 km/h 71 % 0 mm
09:44 14.7 °C 9.3 °C 1019.2 hPa SSW 13 km/h 17.7 km/h 70 % 0 mm
09:49 14.6 °C 9.4 °C 1019.2 hPa South 11.9 km/h 18.5 km/h 71 % 0 mm
09:54 14.9 °C 9.7 °C 1019.2 hPa SE 12.2 km/h 14.8 km/h 71 % 0 mm
09:59 15.1 °C 9.4 °C 1019.2 hPa SSE 14.3 km/h 22.2 km/h 69 % 0 mm
10:04 15.2 °C 9.5 °C 1019.2 hPa SSE 19.8 km/h 25.9 km/h 69 % 0 mm
10:09 15.3 °C 9.4 °C 1019.2 hPa SSE 11.9 km/h 18.5 km/h 68 % 0 mm
10:14 15.4 °C 9.5 °C 1019.2 hPa SSE 14 km/h 22.2 km/h 68 % 0 mm
10:19 15.4 °C 9.6 °C 1019.5 hPa South 11.1 km/h 22.2 km/h 68 % 0 mm
10:24 15.6 °C 9.7 °C 1019.5 hPa SSE 10.3 km/h 24.1 km/h 68 % 0 mm
10:29 15.7 °C 9.6 °C 1019.5 hPa SSE 11.6 km/h 18.5 km/h 67 % 0 mm
10:34 15.8 °C 9.5 °C 1019.5 hPa SE 14.5 km/h 20.4 km/h 66 % 0 mm
10:39 16 °C 9.4 °C 1019.2 hPa SE 16.9 km/h 22.5 km/h 65 % 0 mm
10:44 16.3 °C 9.4 °C 1019.2 hPa SSE 18.7 km/h 22.2 km/h 64 % 0 mm
10:49 16.4 °C 9.4 °C 1019.2 hPa SSE 15.6 km/h 18.5 km/h 63 % 0 mm
10:54 16.3 °C 9.3 °C 1018.8 hPa South 9.8 km/h 20.4 km/h 63 % 0 mm
10:59 16.6 °C 9.5 °C 1018.8 hPa SE 8.4 km/h 16.7 km/h 63 % 0 mm
11:04 16.4 °C 9.1 °C 1018.8 hPa South 15.6 km/h 18.5 km/h 62 % 0 mm
11:09 16.5 °C 9.2 °C 1018.8 hPa SE 18 km/h 24.1 km/h 62 % 0 mm
11:14 16.8 °C 9.4 °C 1018.8 hPa SE 10.1 km/h 14.8 km/h 62 % 0 mm
11:19 16.9 °C 9.3 °C 1018.8 hPa SSE 12.4 km/h 18.5 km/h 61 % 0 mm
11:24 17.1 °C 9.3 °C 1018.5 hPa SE 20.6 km/h 25.9 km/h 60 % 0 mm
11:29 17.4 °C 9.3 °C 1018.5 hPa SSE 9.7 km/h 16.7 km/h 59 % 0 mm
11:34 17.7 °C 9.6 °C 1018.5 hPa SE 13.5 km/h 18.5 km/h 59 % 0 mm
11:39 18.1 °C 9.1 °C 1018.5 hPa SSW 14.5 km/h 16.7 km/h 56 % 0 mm
11:44 18.1 °C 9.7 °C 1018.5 hPa SE 10.5 km/h 14.8 km/h 58 % 0 mm
11:49 18.2 °C 9.3 °C 1018.5 hPa SSE 8.9 km/h 14.8 km/h 56 % 0 mm
11:54 18.4 °C 9.2 °C 1018.2 hPa SE 11.6 km/h 14.8 km/h 55 % 0 mm
11:59 18.6 °C 9.1 °C 1018.2 hPa SSE 13.8 km/h 18.5 km/h 54 % 0 mm
12:04 18.7 °C 8.9 °C 1017.8 hPa SSE 11.9 km/h 11.9 km/h 53 % 0 mm
12:09 18.6 °C 8.8 °C 1017.8 hPa South 6.9 km/h 12.9 km/h 53 % 0 mm
12:14 18.8 °C 8.8 °C 1017.8 hPa South 9.3 km/h 11.1 km/h 52 % 0 mm
12:19 19.1 °C 8.7 °C 1017.8 hPa SE 8 km/h 11.1 km/h 51 % 0 mm
12:24 19.4 °C 9 °C 1017.5 hPa SSE 7.7 km/h 14.8 km/h 51 % 0 mm
12:29 19.6 °C 8.8 °C 1017.5 hPa SSW 9.7 km/h 16.7 km/h 50 % 0 mm
12:34 19.6 °C 8.6 °C 1017.5 hPa SE 9.5 km/h 16.7 km/h 49 % 0 mm
12:39 19.9 °C 8.9 °C 1017.5 hPa SSE 10 km/h 16.1 km/h 49 % 0 mm
12:44 20.2 °C 9.2 °C 1017.5 hPa SE 4.5 km/h 9.3 km/h 49 % 0 mm
12:49 20.4 °C 9.1 °C 1017.2 hPa SE 6 km/h 11.1 km/h 48 % 0 mm
12:54 20.7 °C 8.9 °C 1017.2 hPa SE 11.9 km/h 18.5 km/h 47 % 0 mm
12:59 21.1 °C 8.7 °C 1017.2 hPa SE 8.7 km/h 13 km/h 45 % 0 mm
13:04 21.3 °C 8.5 °C 1016.8 hPa SE 14.6 km/h 18.5 km/h 44 % 0 mm
13:09 21.2 °C 8.1 °C 1016.8 hPa SE 12.2 km/h 16.1 km/h 43 % 0 mm
13:14 21.1 °C 8.1 °C 1016.8 hPa SE 14.3 km/h 20.4 km/h 43 % 0 mm
13:19 21.1 °C 8.1 °C 1016.8 hPa SSE 8.2 km/h 13 km/h 43 % 0 mm
13:24 21 °C 8.3 °C 1016.5 hPa South 12.1 km/h 18.5 km/h 44 % 0 mm
13:29 21.1 °C 8.3 °C 1016.5 hPa SE 12.2 km/h 14.8 km/h 44 % 0 mm
13:34 21.3 °C 7.9 °C 1016.5 hPa SSE 2.1 km/h 11.1 km/h 42 % 0 mm
13:39 21.4 °C 8 °C 1016.5 hPa SSE 5.6 km/h 16.7 km/h 42 % 0 mm
13:44 21.4 °C 8 °C 1016.1 hPa SSW 11.9 km/h 18.5 km/h 42 % 0 mm
13:49 21.4 °C 7.6 °C 1016.1 hPa SSW 10.8 km/h 18.5 km/h 41 % 0 mm
13:54 21.5 °C 7.7 °C 1016.1 hPa SSE 10.5 km/h 20.4 km/h 41 % 0 mm
13:59 22.2 °C 7.9 °C 1016.1 hPa SSE 6.4 km/h 12.9 km/h 40 % 0 mm
14:04 22.6 °C 7.6 °C 1015.8 hPa SSE 9.7 km/h 16.7 km/h 38 % 0 mm
14:09 22.6 °C 7.9 °C 1016.1 hPa SSW 11.1 km/h 17.7 km/h 39 % 0 mm
14:14 22.4 °C 7.4 °C 1015.8 hPa South 3.9 km/h 5.6 km/h 38 % 0 mm
14:19 22.3 °C 7.3 °C 1015.8 hPa SE 12.1 km/h 18.5 km/h 38 % 0 mm
14:24 22.8 °C 7.3 °C 1015.8 hPa South 13.2 km/h 18.5 km/h 37 % 0 mm
14:29 22.9 °C 7.4 °C 1015.8 hPa SE 3.5 km/h 13 km/h 37 % 0 mm
14:34 22.9 °C 7.1 °C 1015.8 hPa South 11.1 km/h 16.7 km/h 36 % 0 mm
14:39 22.9 °C 7.4 °C 1015.5 hPa SSE 10.3 km/h 14.8 km/h 37 % 0 mm
14:44 22.7 °C 7.2 °C 1015.5 hPa South 9.5 km/h 24.1 km/h 37 % 0 mm
14:49 22.6 °C 7.2 °C 1015.5 hPa South 7.6 km/h 14.8 km/h 37 % 0 mm
14:55 22.8 °C 7.4 °C 1015.5 hPa SE 15.8 km/h 27.4 km/h 37 % 0 mm
15:00 23 °C 7.1 °C 1015.5 hPa South 9.8 km/h 14.8 km/h 36 % 0 mm
15:05 23.1 °C 6.8 °C 1015.5 hPa SSW 10.8 km/h 14.8 km/h 35 % 0 mm
15:10 23.1 °C 7.2 °C 1015.5 hPa SSE 13.2 km/h 18.5 km/h 36 % 0 mm
15:15 23.4 °C 7.5 °C 1015.5 hPa SSW 13.7 km/h 19.3 km/h 36 % 0 mm
15:20 23 °C 7.1 °C 1015.1 hPa South 19.5 km/h 27.8 km/h 36 % 0 mm
15:25 22.8 °C 7.4 °C 1015.1 hPa South 3.9 km/h 9.7 km/h 37 % 0 mm
15:30 23.2 °C 7.3 °C 1015.1 hPa SSW 14.2 km/h 19.3 km/h 36 % 0 mm
15:35 23.1 °C 7.6 °C 1015.1 hPa SSW 13.2 km/h 18.5 km/h 37 % 0 mm
15:40 23.1 °C 7.2 °C 1014.8 hPa SSW 10.9 km/h 16.7 km/h 36 % 0 mm
15:45 23.1 °C 6.8 °C 1014.8 hPa SSE 10.1 km/h 14.8 km/h 35 % 0 mm
15:50 23.1 °C 7.2 °C 1014.8 hPa SW 9.3 km/h 16.7 km/h 36 % 0 mm
15:55 23.2 °C 6.8 °C 1014.8 hPa SSW 9.3 km/h 14.8 km/h 35 % 0 mm
16:00 23.3 °C 6.9 °C 1014.4 hPa South 8.5 km/h 11.3 km/h 35 % 0 mm
16:05 23.4 °C 6.6 °C 1014.4 hPa SSE 13.5 km/h 18.5 km/h 34 % 0 mm
16:10 23.4 °C 7.1 °C 1014.4 hPa South 16.6 km/h 22.2 km/h 35 % 0 mm
16:15 23.3 °C 6.6 °C 1014.4 hPa South 7.2 km/h 14.8 km/h 34 % 0 mm
16:20 23.4 °C 6.7 °C 1014.4 hPa SSW 9 km/h 14.5 km/h 34 % 0 mm
16:25 23.2 °C 6.5 °C 1014.4 hPa South 10.8 km/h 13 km/h 34 % 0 mm
16:30 23.2 °C 6.4 °C 1014.4 hPa South 11.9 km/h 20.4 km/h 34 % 0 mm
16:35 23.2 °C 6.5 °C 1014.4 hPa SSW 14.3 km/h 22.2 km/h 34 % 0 mm
16:40 23.4 °C 6.2 °C 1014.1 hPa SSW 2.9 km/h 7.4 km/h 33 % 0 mm
16:45 23.3 °C 6.6 °C 1014.4 hPa SSW 15.6 km/h 20.4 km/h 34 % 0 mm
16:50 23.3 °C 6.6 °C 1014.1 hPa SSW 13.5 km/h 18.5 km/h 34 % 0 mm
16:55 23.3 °C 6.2 °C 1014.1 hPa SSE 11.4 km/h 14.8 km/h 33 % 0 mm
17:00 23.6 °C 6.8 °C 1014.1 hPa South 13.7 km/h 18.5 km/h 34 % 0 mm
17:01 23.6 °C 6.3 °C 1014.1 hPa SSE 8.7 km/h 16.7 km/h 33 % 0 mm
17:06 23.4 °C 6.7 °C 1014.1 hPa South 11.4 km/h 14.8 km/h 34 % 0 mm
17:11 23.5 °C 6.7 °C 1014.1 hPa South 10 km/h 13 km/h 34 % 0 mm
18:30 22.8 °C 6.5 °C 1014.1 hPa SSW 8.4 km/h 14.8 km/h 35 % 0 mm
18:35 22.8 °C 6.5 °C 1014.1 hPa South 11.4 km/h 18.5 km/h 35 % 0 mm
18:40 22.7 °C 6.9 °C 1014.1 hPa SSW 9.7 km/h 13 km/h 36 % 0 mm
18:45 22.7 °C 7.3 °C 1014.1 hPa SSW 7.9 km/h 14.8 km/h 37 % 0 mm
18:50 22.7 °C 7.2 °C 1014.1 hPa North 6.8 km/h 9.3 km/h 37 % 0 mm
18:55 22.5 °C 7.4 °C 1014.4 hPa South 12.1 km/h 18.5 km/h 38 % 0 mm
19:00 22.2 °C 7.9 °C 1014.1 hPa South 13.7 km/h 18.5 km/h 40 % 0 mm
19:05 21.9 °C 8.1 °C 1014.1 hPa SSW 10 km/h 16.7 km/h 41 % 0 mm
19:10 21.8 °C 8 °C 1014.4 hPa South 10.8 km/h 16.7 km/h 41 % 0 mm
19:15 21.7 °C 8.2 °C 1014.4 hPa South 11.1 km/h 14.8 km/h 42 % 0 mm
19:20 21.4 °C 8.3 °C 1014.4 hPa SSW 8.4 km/h 11.1 km/h 43 % 0 mm
19:25 21.1 °C 8.3 °C 1014.4 hPa South 10.8 km/h 16.7 km/h 44 % 0 mm
19:30 20.7 °C 8.3 °C 1014.4 hPa SSW 12.7 km/h 22.2 km/h 45 % 0 mm
19:35 20.4 °C 8.1 °C 1014.8 hPa SSW 10.6 km/h 18.5 km/h 45 % 0 mm
19:40 20.2 °C 8.2 °C 1014.8 hPa South 10.6 km/h 16.7 km/h 46 % 0 mm
19:45 19.9 °C 7.9 °C 1014.8 hPa SSW 13.4 km/h 18.5 km/h 46 % 0 mm
19:50 19.7 °C 8.1 °C 1014.8 hPa South 14.2 km/h 24.1 km/h 47 % 0 mm
19:55 19.4 °C 8.1 °C 1014.8 hPa South 12.9 km/h 18.5 km/h 48 % 0 mm
20:00 19.1 °C 8.2 °C 1014.8 hPa South 14.2 km/h 18.5 km/h 49 % 0 mm
20:05 18.8 °C 8.2 °C 1014.8 hPa South 8.4 km/h 14.8 km/h 50 % 0 mm
20:10 18.6 °C 8.2 °C 1014.8 hPa South 13 km/h 18.5 km/h 51 % 0 mm
20:15 18.3 °C 8.2 °C 1015.1 hPa SSW 5.3 km/h 11.1 km/h 52 % 0 mm
20:20 18.1 °C 8.3 °C 1015.1 hPa SSW 13.7 km/h 18.5 km/h 53 % 0 mm
20:25 17.8 °C 8.3 °C 1015.1 hPa South 14.6 km/h 24.1 km/h 54 % 0 mm
20:30 17.5 °C 8.3 °C 1015.1 hPa SSW 12.1 km/h 18.5 km/h 55 % 0 mm
20:35 17.3 °C 8.4 °C 1015.1 hPa South 13.5 km/h 18.5 km/h 56 % 0 mm
20:40 17.1 °C 8.4 °C 1015.5 hPa North 12.6 km/h 18.5 km/h 57 % 0 mm
20:45 16.8 °C 8.5 °C 1015.5 hPa SSW 12.2 km/h 18.5 km/h 58 % 0 mm
20:50 16.6 °C 8.8 °C 1015.5 hPa South 14.3 km/h 22.2 km/h 60 % 0 mm
20:55 16.3 °C 8.8 °C 1015.5 hPa South 9.8 km/h 14.8 km/h 61 % 0 mm
21:00 16.1 °C 8.8 °C 1015.5 hPa SSW 9.5 km/h 18.5 km/h 62 % 0 mm
21:05 15.9 °C 8.8 °C 1015.5 hPa SSE 8.2 km/h 14.8 km/h 63 % 0 mm
21:10 15.7 °C 8.9 °C 1015.5 hPa South 11.9 km/h 18.5 km/h 64 % 0 mm
21:15 15.5 °C 8.9 °C 1015.5 hPa South 6.8 km/h 13 km/h 65 % 0 mm
21:20 15.3 °C 8.8 °C 1015.5 hPa South 8.7 km/h 13 km/h 65 % 0 mm
21:25 15.2 °C 8.8 °C 1015.5 hPa SSE 9.3 km/h 16.7 km/h 66 % 0 mm
21:30 15 °C 8.9 °C 1015.5 hPa South 10.6 km/h 14.8 km/h 67 % 0 mm
21:35 14.8 °C 9 °C 1015.8 hPa South 7.7 km/h 16.1 km/h 68 % 0 mm
21:40 14.7 °C 9.1 °C 1015.8 hPa South 7.2 km/h 13 km/h 69 % 0 mm
21:45 14.6 °C 8.9 °C 1015.8 hPa North 10.8 km/h 16.7 km/h 69 % 0 mm
21:50 14.4 °C 9.1 °C 1015.8 hPa North 7.7 km/h 11.1 km/h 70 % 0 mm
21:55 14.3 °C 9.1 °C 1015.8 hPa SSE 11.7 km/h 16.7 km/h 71 % 0 mm
22:00 14.2 °C 9 °C 1015.8 hPa South 12.7 km/h 18.5 km/h 71 % 0 mm
22:05 14.1 °C 9.1 °C 1015.8 hPa South 5.5 km/h 11.1 km/h 72 % 0 mm
22:10 13.9 °C 9 °C 1016.1 hPa North 11.7 km/h 16.7 km/h 72 % 0 mm
22:15 13.8 °C 9.1 °C 1016.1 hPa South 9.2 km/h 18.5 km/h 73 % 0 mm
22:20 13.7 °C 8.9 °C 1016.1 hPa South 9.8 km/h 14.8 km/h 73 % 0 mm
22:25 13.6 °C 8.8 °C 1015.8 hPa North 8 km/h 13 km/h 73 % 0 mm
22:30 13.5 °C 8.9 °C 1015.8 hPa South 8.5 km/h 11.1 km/h 74 % 0 mm
22:35 13.4 °C 8.8 °C 1015.8 hPa South 7.1 km/h 9.3 km/h 74 % 0 mm
22:40 13.2 °C 8.7 °C 1015.8 hPa South 5.6 km/h 13 km/h 74 % 0 mm
22:45 13.1 °C 8.8 °C 1015.8 hPa South 4.7 km/h 7.4 km/h 75 % 0 mm
22:50 12.9 °C 8.6 °C 1015.8 hPa South 9.5 km/h 13 km/h 75 % 0 mm
22:55 12.8 °C 8.7 °C 1015.5 hPa North 6 km/h 11.1 km/h 76 % 0 mm
23:00 12.8 °C 8.7 °C 1015.5 hPa North 8.7 km/h 14.8 km/h 76 % 0 mm
23:05 12.7 °C 8.7 °C 1015.5 hPa South 7.6 km/h 9.3 km/h 77 % 0 mm
23:10 12.6 °C 8.6 °C 1015.1 hPa South 5.6 km/h 9.3 km/h 77 % 0 mm
23:15 12.4 °C 8.5 °C 1015.5 hPa South 8 km/h 11.1 km/h 77 % 0 mm
23:20 12.4 °C 8.7 °C 1015.5 hPa South 7.9 km/h 11.1 km/h 78 % 0 mm
23:25 12.3 °C 8.6 °C 1015.5 hPa South 5.1 km/h 9.3 km/h 78 % 0 mm
23:30 12.2 °C 8.5 °C 1015.1 hPa North 8.2 km/h 11.1 km/h 78 % 0 mm
23:35 12.1 °C 8.6 °C 1015.1 hPa South 9.2 km/h 14.8 km/h 79 % 0 mm
23:40 12.1 °C 8.6 °C 1015.1 hPa North 6.3 km/h 9.7 km/h 79 % 0 mm
23:45 12 °C 8.4 °C 1015.1 hPa South 7.1 km/h 13 km/h 79 % 0 mm
23:50 11.9 °C 8.4 °C 1015.1 hPa North 5.6 km/h 11.1 km/h 79 % 0 mm
23:55 11.8 °C 8.5 °C 1014.8 hPa North 5.1 km/h 11.1 km/h 80 % 0 mm
Ararat Weather
Compliments of Weather Underground - 2.25 mb
Click here to send mail.


ABOUT

Live weather data from Ararat, Victoria, Australia, 3377
Data uploaded from Cumulus every 5 minutes to Weather Underground.
This site then downloads the raw data for formatting and display.
Metric and imperial data can be displayed. Graphs and historical data available.
Includes Sun and Moon times and rain image live from BOM.

Check out Ararat Weather on Facebook, Twitter and Google +

Help support ongoing costs by checking out the ads





Follow @AraratWeather